Time;durP1;ratioP1;P1;durP2;ratioP2;P2;SDS_P1;SDS_P2;PMS_P1;PMS_P2;Temp;Humidity;BMP_temperature;BMP_pressure;BME280_temperature;BME280_humidity;BME280_pressure;Samples;Min_cycle;Max_cycle;Signal;HPM_P1;HPM_P2
2021/09/15 00:02:26;;;;;;;13.38;9.43;;;;;;;10.66;100.00;100938.84;5031005;28;20040;-78
2021/09/15 00:04:52;;;;;;;14.38;9.50;;;;;;;10.64;100.00;100943.31;5027641;28;20041;-79
2021/09/15 00:07:19;;;;;;;16.38;9.55;;;;;;;10.66;100.00;100928.28;4990024;28;20045;-79
2021/09/15 00:09:46;;;;;;;16.70;9.35;;;;;;;10.66;100.00;100930.94;5026925;28;20741;-79
2021/09/15 00:12:12;;;;;;;14.27;9.43;;;;;;;10.71;100.00;100920.31;5018120;28;20045;-78
2021/09/15 00:14:39;;;;;;;13.95;8.60;;;;;;;10.58;100.00;100929.31;5009058;28;20128;-80
2021/09/15 00:17:06;;;;;;;14.35;9.18;;;;;;;10.56;100.00;100928.47;5025022;28;20044;-78
2021/09/15 00:19:33;;;;;;;13.82;8.57;;;;;;;10.51;100.00;100925.91;4990112;28;20045;-78
2021/09/15 00:21:59;;;;;;;11.57;8.27;;;;;;;10.50;100.00;100929.44;4984980;28;20426;-78
2021/09/15 00:24:26;;;;;;;12.95;9.02;;;;;;;10.55;100.00;100919.69;5023137;28;20045;-78
2021/09/15 00:26:53;;;;;;;13.32;8.95;;;;;;;10.54;100.00;100917.94;5006077;28;20088;-79
2021/09/15 00:29:19;;;;;;;16.23;9.15;;;;;;;10.56;100.00;100909.97;5022997;28;20040;-79
2021/09/15 00:31:46;;;;;;;13.65;9.35;;;;;;;10.52;100.00;100909.16;4995581;28;20053;-78
2021/09/15 00:34:13;;;;;;;14.70;8.68;;;;;;;10.53;100.00;100896.84;5003493;28;21890;-78
2021/09/15 00:36:39;;;;;;;15.32;8.90;;;;;;;10.53;100.00;100899.47;5009767;28;20518;-78
2021/09/15 00:39:06;;;;;;;15.65;10.07;;;;;;;10.42;100.00;100902.25;5006961;28;20041;-80
2021/09/15 00:41:33;;;;;;;15.45;9.07;;;;;;;10.38;100.00;100917.31;5024063;28;20041;-79
2021/09/15 00:44:08;;;;;;;19.30;10.25;;;;;;;10.42;100.00;100905.81;5026380;28;20052;-79
2021/09/15 00:46:36;;;;;;;15.43;8.55;;;;;;;10.45;100.00;100907.53;5008628;28;20045;-78
2021/09/15 00:49:03;;;;;;;11.55;8.98;;;;;;;10.52;100.00;100905.66;4989313;28;20042;-78
2021/09/15 00:51:35;;;;;;;14.63;9.23;;;;;;;10.49;100.00;100905.69;4991057;28;20379;-78
2021/09/15 00:54:04;;;;;;;13.40;9.18;;;;;;;10.50;100.00;100908.31;4986543;28;20060;-79
2021/09/15 00:56:32;;;;;;;12.70;9.27;;;;;;;10.49;100.00;100903.91;5026263;28;20061;-79
2021/09/15 00:59:05;;;;;;;15.55;9.52;;;;;;;10.43;100.00;100899.63;5023707;28;20053;-78
2021/09/15 01:01:31;;;;;;;14.23;9.30;;;;;;;10.39;100.00;100894.41;5023180;28;20049;-79
2021/09/15 01:04:02;;;;;;;17.38;9.27;;;;;;;10.48;100.00;100890.75;5005706;28;20049;-78
2021/09/15 01:06:31;;;;;;;13.32;9.38;;;;;;;10.47;100.00;100891.66;5022142;28;20043;-79
2021/09/15 01:09:04;;;;;;;14.18;10.02;;;;;;;10.48;100.00;100896.03;5021144;28;20044;-77
2021/09/15 01:11:37;;;;;;;16.02;10.40;;;;;;;10.45;100.00;100890.81;5004465;28;20124;-78
2021/09/15 01:14:04;;;;;;;13.43;9.57;;;;;;;10.40;100.00;100886.44;5004953;28;20473;-79
2021/09/15 01:16:50;;;;;;;16.55;9.70;;;;;;;10.46;100.00;100882.84;5027570;28;20118;-78
2021/09/15 01:19:16;;;;;;;13.98;9.65;;;;;;;10.46;100.00;100876.69;5039022;28;20556;-77
2021/09/15 01:21:43;;;;;;;15.18;10.07;;;;;;;10.50;100.00;100887.16;5033489;28;20064;-78
2021/09/15 01:24:10;;;;;;;14.30;8.60;;;;;;;10.41;100.00;100882.91;5010459;28;20038;-78
2021/09/15 01:26:37;;;;;;;14.73;9.70;;;;;;;10.42;100.00;100881.13;5026156;28;20511;-80
2021/09/15 01:29:04;;;;;;;14.20;9.50;;;;;;;10.39;100.00;100882.06;4993761;28;20033;-79
2021/09/15 01:31:31;;;;;;;14.70;9.90;;;;;;;10.41;100.00;100882.03;5028527;28;20044;-79
2021/09/15 01:33:57;;;;;;;14.55;9.82;;;;;;;10.48;100.00;100882.81;5009887;28;20050;-78
2021/09/15 01:36:24;;;;;;;11.95;9.05;;;;;;;10.44;100.00;100889.94;5041358;28;20463;-79
2021/09/15 01:38:51;;;;;;;13.13;8.80;;;;;;;10.45;100.00;100888.16;5009220;28;20049;-79
2021/09/15 01:41:17;;;;;;;13.02;9.35;;;;;;;10.43;100.00;100875.84;5006817;28;20657;-80
2021/09/15 01:43:51;;;;;;;15.48;9.88;;;;;;;10.47;100.00;100878.44;5025177;28;20045;-78
2021/09/15 01:46:17;;;;;;;13.57;9.48;;;;;;;10.60;100.00;100880.84;5009941;28;20037;-78
2021/09/15 01:48:44;;;;;;;12.80;9.65;;;;;;;10.70;100.00;100877.16;5010574;28;20632;-78
2021/09/15 01:51:11;;;;;;;12.80;9.05;;;;;;;10.66;100.00;100875.44;5008482;28;20079;-79
2021/09/15 01:53:37;;;;;;;13.10;9.93;;;;;;;10.63;100.00;100869.34;5012362;28;20096;-79
2021/09/15 01:56:04;;;;;;;15.90;10.60;;;;;;;10.63;100.00;100872.88;5009400;28;20714;-79
2021/09/15 01:58:31;;;;;;;14.20;10.00;;;;;;;10.55;100.00;100861.56;5009453;28;20033;-79
2021/09/15 02:00:57;;;;;;;15.63;10.63;;;;;;;10.54;100.00;100875.66;5010436;28;20049;-79
2021/09/15 02:03:24;;;;;;;14.90;9.75;;;;;;;10.63;100.00;100861.44;5028745;28;20638;-78
2021/09/15 02:05:51;;;;;;;16.65;11.00;;;;;;;10.57;100.00;100858.88;5031132;28;20056;-82
2021/09/15 02:08:17;;;;;;;14.43;10.43;;;;;;;10.75;100.00;100860.31;5012785;28;20068;-78
2021/09/15 02:10:44;;;;;;;15.60;9.93;;;;;;;10.75;100.00;100847.97;5015956;28;20041;-78
2021/09/15 02:13:11;;;;;;;13.35;10.23;;;;;;;10.69;100.00;100843.69;4994106;28;20458;-82
2021/09/15 02:15:37;;;;;;;15.35;10.30;;;;;;;10.69;100.00;100838.41;5003887;28;20065;-80
2021/09/15 02:18:04;;;;;;;15.75;9.82;;;;;;;10.78;100.00;100831.22;5035998;28;20044;-78
2021/09/15 02:20:31;;;;;;;16.75;10.60;;;;;;;10.82;100.00;100822.31;5008402;28;20104;-78
2021/09/15 02:22:57;;;;;;;15.95;9.90;;;;;;;10.81;100.00;100823.22;5015325;28;20050;-82
2021/09/15 02:25:24;;;;;;;15.93;11.18;;;;;;;10.78;100.00;100820.66;5031237;28;20041;-78
2021/09/15 02:27:51;;;;;;;14.30;10.00;;;;;;;10.69;100.00;100809.34;5013995;28;20042;-78
2021/09/15 02:30:17;;;;;;;15.00;9.77;;;;;;;10.77;100.00;100809.22;5014660;28;20079;-82
2021/09/15 02:32:44;;;;;;;14.00;9.18;;;;;;;10.71;100.00;100807.53;5013501;28;20045;-79
2021/09/15 02:35:12;;;;;;;13.80;9.63;;;;;;;10.74;100.00;100797.81;4997852;28;20037;-79
2021/09/15 02:37:39;;;;;;;15.32;9.60;;;;;;;10.78;100.00;100803.03;5015209;28;20049;-79
2021/09/15 02:40:06;;;;;;;16.70;11.40;;;;;;;10.86;100.00;100798.47;5017713;28;20041;-81
2021/09/15 02:42:33;;;;;;;16.90;11.38;;;;;;;10.93;100.00;100802.72;5011044;28;20045;-82
2021/09/15 02:45:01;;;;;;;17.45;11.68;;;;;;;10.97;100.00;100796.47;4996614;28;20048;-78
2021/09/15 02:47:28;;;;;;;18.00;11.10;;;;;;;10.99;100.00;100796.44;5013362;28;20040;-79
2021/09/15 02:49:55;;;;;;;15.40;10.60;;;;;;;10.93;100.00;100804.47;4997215;28;20041;-80
2021/09/15 02:52:21;;;;;;;15.93;10.98;;;;;;;11.02;100.00;100793.75;5019440;28;20046;-80
2021/09/15 02:54:48;;;;;;;15.50;11.18;;;;;;;11.00;100.00;100795.53;4989758;28;20042;-83
2021/09/15 02:57:15;;;;;;;16.00;11.20;;;;;;;10.99;100.00;100799.94;5000171;28;20499;-81
2021/09/15 02:59:42;;;;;;;16.00;10.65;;;;;;;10.97;100.00;100801.75;5023823;28;20045;-80
2021/09/15 03:02:08;;;;;;;16.83;10.82;;;;;;;10.98;100.00;100797.34;5008894;28;20062;-82
2021/09/15 03:04:35;;;;;;;16.15;12.13;;;;;;;11.10;100.00;100807.69;5004849;28;20049;-80
2021/09/15 03:07:02;;;;;;;19.08;11.93;;;;;;;11.23;100.00;100809.16;5025373;28;20045;-82
2021/09/15 03:09:28;;;;;;;18.40;11.05;;;;;;;11.21;100.00;100795.09;5027726;28;20480;-82
2021/09/15 03:11:55;;;;;;;16.65;11.82;;;;;;;11.30;100.00;100795.81;5022289;28;20052;-81
2021/09/15 03:14:22;;;;;;;15.30;10.68;;;;;;;11.22;100.00;100788.91;5019697;28;20045;-80
2021/09/15 03:16:48;;;;;;;15.57;10.38;;;;;;;11.30;100.00;100786.09;4990969;28;20424;-84
2021/09/15 03:19:15;;;;;;;14.70;10.23;;;;;;;11.32;100.00;100776.34;5017866;28;20045;-80
2021/09/15 03:21:44;;;;;;;14.65;10.57;;;;;;;11.34;100.00;100784.25;5014221;28;20055;-80
2021/09/15 03:24:10;;;;;;;16.33;12.30;;;;;;;11.43;100.00;100779.63;5013024;28;20111;-80
2021/09/15 03:26:37;;;;;;;16.27;11.73;;;;;;;11.40;100.00;100778.84;5019773;28;20164;-83
2021/09/15 03:29:04;;;;;;;14.73;10.85;;;;;;;11.41;100.00;100777.94;5028974;28;20045;-80
2021/09/15 03:31:31;;;;;;;18.90;12.57;;;;;;;11.61;100.00;100778.38;5001217;28;20050;-80
2021/09/15 03:33:57;;;;;;;14.52;11.50;;;;;;;11.53;100.00;100769.72;5007994;28;20057;-81
2021/09/15 03:36:24;;;;;;;18.02;13.07;;;;;;;11.55;100.00;100771.44;5025957;28;20045;-80
2021/09/15 03:38:51;;;;;;;19.40;10.73;;;;;;;11.52;100.00;100766.22;5011814;28;20758;-81
2021/09/15 03:41:18;;;;;;;16.55;12.85;;;;;;;11.61;100.00;100762.50;5011644;28;20099;-82
2021/09/15 03:43:44;;;;;;;15.68;12.55;;;;;;;11.57;100.00;100764.31;5022068;28;20049;-79
2021/09/15 03:46:11;;;;;;;17.80;11.45;;;;;;;11.57;100.00;100763.44;5039094;28;20054;-80
2021/09/15 03:48:37;;;;;;;15.82;10.95;;;;;;;11.56;100.00;100761.72;5010904;28;20103;-86
2021/09/15 03:51:04;;;;;;;20.45;14.55;;;;;;;11.79;100.00;100755.88;5016900;28;20416;-81
2021/09/15 03:53:31;;;;;;;15.10;12.20;;;;;;;11.74;100.00;100765.72;5048483;28;20375;-80
2021/09/15 03:55:57;;;;;;;15.30;11.48;;;;;;;11.68;100.00;100753.47;5038800;28;20099;-83
2021/09/15 03:58:24;;;;;;;16.08;12.25;;;;;;;11.69;100.00;100757.03;5011032;28;20044;-80
2021/09/15 04:00:51;;;;;;;18.20;12.23;;;;;;;11.82;100.00;100742.59;5027664;28;20042;-79
2021/09/15 04:03:18;;;;;;;16.30;11.57;;;;;;;11.81;100.00;100743.50;5051856;28;20075;-80
2021/09/15 04:05:44;;;;;;;17.98;13.43;;;;;;;11.85;100.00;100745.16;5026137;28;20080;-82
2021/09/15 04:08:11;;;;;;;16.00;12.30;;;;;;;11.86;100.00;100735.47;5003292;28;20517;-81
2021/09/15 04:10:38;;;;;;;17.83;12.95;;;;;;;11.92;100.00;100735.31;5012706;28;20050;-80
2021/09/15 04:13:04;;;;;;;18.65;13.68;;;;;;;11.97;100.00;100729.00;5027627;28;20632;-81
2021/09/15 04:15:31;;;;;;;16.77;13.13;;;;;;;12.02;100.00;100728.88;5000521;28;20107;-81
2021/09/15 04:17:58;;;;;;;14.73;11.13;;;;;;;11.92;100.00;100735.31;5010404;28;20042;-81
2021/09/15 04:20:24;;;;;;;18.95;13.45;;;;;;;12.01;100.00;100721.84;5011908;28;20045;-81
2021/09/15 04:22:51;;;;;;;14.60;11.63;;;;;;;11.93;100.00;100721.16;5011093;28;20049;-81
2021/09/15 04:33:38;;;;;;;20.60;13.93;;;;;;;12.14;100.00;100712.69;5010504;28;20079;-81
2021/09/15 04:36:05;;;;;;;17.30;13.48;;;;;;;12.06;100.00;100712.88;4995972;28;20046;-80
2021/09/15 04:38:31;;;;;;;17.67;13.70;;;;;;;12.06;100.00;100719.94;5006117;28;20041;-80
2021/09/15 04:40:59;;;;;;;20.60;14.35;;;;;;;12.22;100.00;100728.38;5041999;28;20056;-81
2021/09/15 04:43:25;;;;;;;18.58;13.30;;;;;;;12.16;100.00;100734.69;5026214;28;20045;-80
2021/09/15 04:45:52;;;;;;;15.88;13.43;;;;;;;12.14;100.00;100725.91;4989780;28;20045;-81
2021/09/15 04:48:19;;;;;;;18.35;14.00;;;;;;;12.32;100.00;100725.44;4993149;28;20033;-81
2021/09/15 04:50:45;;;;;;;17.98;13.50;;;;;;;12.20;100.00;100725.78;4988169;28;20103;-80
2021/09/15 04:53:12;;;;;;;16.00;12.50;;;;;;;12.27;100.00;100711.44;5004587;28;20674;-80
2021/09/15 04:55:39;;;;;;;15.13;12.25;;;;;;;12.35;100.00;100711.22;5018899;28;20045;-80
2021/09/15 04:58:06;;;;;;;14.65;11.10;;;;;;;12.29;100.00;100717.56;5009303;28;20033;-80
2021/09/15 05:00:33;;;;;;;20.15;12.65;;;;;;;12.47;100.00;100710.03;5012725;28;20041;-81
2021/09/15 05:02:59;;;;;;;17.27;13.75;;;;;;;12.59;100.00;100712.34;5024544;28;20061;-80
2021/09/15 05:05:26;;;;;;;20.52;14.77;;;;;;;12.53;100.00;100704.56;5014740;28;20048;-81
2021/09/15 05:07:53;;;;;;;19.48;13.85;;;;;;;12.60;100.00;100698.16;4991679;28;20048;-80
2021/09/15 05:10:24;;;;;;;15.43;13.05;;;;;;;12.60;100.00;100701.69;4997153;28;20387;-80
2021/09/15 05:12:55;;;;;;;23.42;16.27;;;;;;;12.66;100.00;100705.94;5019046;28;20137;-80
2021/09/15 05:15:22;;;;;;;16.70;12.60;;;;;;;12.63;100.00;100704.28;5032952;28;20041;-80
2021/09/15 05:17:49;;;;;;;19.85;14.73;;;;;;;12.74;100.00;100701.31;5003953;28;20099;-81
2021/09/15 05:20:19;;;;;;;18.45;14.05;;;;;;;12.81;100.00;100702.00;5008234;28;20049;-81
2021/09/15 05:22:46;;;;;;;18.08;14.07;;;;;;;12.82;100.00;100698.44;5025817;28;20045;-81
2021/09/15 05:25:14;;;;;;;19.70;14.30;;;;;;;12.96;100.00;100694.47;5028869;28;20050;-80
2021/09/15 05:27:41;;;;;;;17.35;13.32;;;;;;;12.89;100.00;100700.00;5008520;28;20399;-80
2021/09/15 05:30:09;;;;;;;16.40;13.05;;;;;;;12.95;100.00;100702.47;5008114;28;20457;-80
2021/09/15 05:32:36;;;;;;;18.40;13.32;;;;;;;12.94;100.00;100693.63;5010878;28;20037;-81
2021/09/15 05:35:04;;;;;;;15.55;13.05;;;;;;;12.92;100.00;100690.16;5005505;28;20034;-81
2021/09/15 05:37:30;;;;;;;20.58;14.32;;;;;;;12.96;100.00;100686.53;5016943;28;20042;-80
2021/09/15 05:39:59;;;;;;;16.85;12.32;;;;;;;13.05;100.00;100684.50;5015706;28;20033;-81
2021/09/15 05:42:26;;;;;;;17.42;13.35;;;;;;;13.05;100.00;100677.41;5009330;28;20438;-81
2021/09/15 05:44:54;;;;;;;16.52;12.85;;;;;;;13.19;100.00;100672.56;5009522;28;20041;-79
2021/09/15 05:47:20;;;;;;;16.50;12.85;;;;;;;13.24;100.00;100673.31;4989964;28;20670;-81
2021/09/15 05:49:47;;;;;;;18.42;13.05;;;;;;;13.28;100.00;100675.84;5018229;28;20384;-81
2021/09/15 05:52:14;;;;;;;17.92;13.88;;;;;;;13.30;100.00;100676.69;5022293;28;20049;-81
2021/09/15 05:54:40;;;;;;;16.13;12.32;;;;;;;13.38;100.00;100675.53;5009555;28;20053;-80
2021/09/15 05:57:07;;;;;;;18.70;13.60;;;;;;;13.46;100.00;100675.28;5007150;28;20107;-81
2021/09/15 05:59:33;;;;;;;16.80;14.07;;;;;;;13.41;100.00;100677.22;5007448;28;20050;-81
2021/09/15 06:02:04;;;;;;;16.45;12.90;;;;;;;13.41;100.00;100683.38;5024377;28;20041;-81
2021/09/15 06:04:30;;;;;;;17.98;13.23;;;;;;;13.56;100.00;100676.72;5034866;23;20067;-80
2021/09/15 06:06:57;;;;;;;16.20;12.65;;;;;;;13.49;100.00;100668.09;5016910;28;20041;-80
2021/09/15 06:09:24;;;;;;;15.82;11.93;;;;;;;13.57;100.00;100667.84;5022735;28;20366;-81
2021/09/15 06:11:51;;;;;;;15.93;12.77;;;;;;;13.75;100.00;100669.03;4998083;28;20049;-81
2021/09/15 06:14:17;;;;;;;15.35;12.52;;;;;;;13.79;100.00;100658.25;4978608;28;20046;-81
2021/09/15 06:16:44;;;;;;;15.98;13.65;;;;;;;13.91;100.00;100662.28;4989187;28;20487;-80
2021/09/15 06:19:11;;;;;;;14.90;12.23;;;;;;;14.02;100.00;100664.56;5011980;28;20050;-81
2021/09/15 06:21:38;;;;;;;15.52;11.60;;;;;;;14.11;100.00;100669.53;5014690;28;20041;-82
2021/09/15 06:24:05;;;;;;;19.45;13.90;;;;;;;14.23;100.00;100673.59;5014768;28;20413;-80
2021/09/15 06:26:31;;;;;;;16.25;11.60;;;;;;;14.16;100.00;100667.59;4984512;28;20096;-82
2021/09/15 06:28:58;;;;;;;15.85;12.13;;;;;;;14.26;100.00;100670.81;5004722;28;20045;-84
2021/09/15 06:31:25;;;;;;;17.95;13.38;;;;;;;14.37;100.00;100666.81;5016795;28;20037;-81
2021/09/15 06:33:53;;;;;;;14.88;12.38;;;;;;;14.46;100.00;100665.69;4988535;28;20037;-82
2021/09/15 06:36:22;;;;;;;14.23;11.73;;;;;;;14.46;100.00;100671.00;5001330;28;20050;-83
2021/09/15 06:38:48;;;;;;;12.88;10.73;;;;;;;14.43;100.00;100670.19;4999774;28;20044;-83
2021/09/15 06:41:15;;;;;;;16.92;12.57;;;;;;;14.40;100.00;100667.66;4993598;28;20052;-81
2021/09/15 06:43:44;;;;;;;15.60;11.75;;;;;;;14.47;100.00;100659.44;4982284;28;20132;-82
2021/09/15 06:46:11;;;;;;;17.13;13.25;;;;;;;14.59;100.00;100658.13;4984588;28;20049;-82
2021/09/15 06:48:37;;;;;;;12.40;10.00;;;;;;;14.46;100.00;100660.38;4997394;28;20419;-82
2021/09/15 06:51:04;;;;;;;13.45;11.15;;;;;;;14.51;100.00;100663.72;5012657;28;20037;-81
2021/09/15 06:53:31;;;;;;;14.68;11.27;;;;;;;14.54;100.00;100663.59;5031936;28;20045;-82
2021/09/15 06:55:58;;;;;;;15.68;11.98;;;;;;;14.42;100.00;100661.34;5001494;28;20046;-80
2021/09/15 06:58:25;;;;;;;14.23;11.15;;;;;;;14.42;100.00;100661.34;5012550;28;20550;-82
2021/09/15 07:00:52;;;;;;;15.23;11.23;;;;;;;14.39;100.00;100660.63;4996624;28;20052;-81
2021/09/15 07:03:19;;;;;;;14.13;10.93;;;;;;;14.39;100.00;100660.63;4992409;28;20479;-80
2021/09/15 07:05:45;;;;;;;12.63;10.73;;;;;;;14.38;100.00;100659.75;4998271;28;20045;-83
2021/09/15 07:11:55;;;;;;;14.73;12.98;;;;;;;14.46;100.00;100670.09;4984720;28;20128;-80
2021/09/15 07:14:22;;;;;;;12.05;9.90;;;;;;;14.46;100.00;100671.00;5007969;28;20049;-82
2021/09/15 07:16:49;;;;;;;13.57;11.50;;;;;;;14.61;100.00;100662.44;4991973;28;20495;-82
2021/09/15 07:19:15;;;;;;;13.05;11.15;;;;;;;14.52;100.00;100661.91;4995894;28;20320;-80
2021/09/15 07:21:43;;;;;;;12.25;10.70;;;;;;;14.62;100.00;100660.66;4983619;28;20111;-87
2021/09/15 07:24:19;;;;;;;14.95;10.73;;;;;;;14.62;100.00;100666.84;4988163;28;20042;-85
2021/09/15 07:26:46;;;;;;;12.50;10.43;;;;;;;14.59;100.00;100672.28;5015040;28;20068;-84
2021/09/15 07:29:12;;;;;;;13.00;10.63;;;;;;;14.66;100.00;100672.06;4994676;28;20042;-83
2021/09/15 07:31:39;;;;;;;17.50;11.88;;;;;;;14.82;100.00;100670.56;5014009;28;20047;-83
2021/09/15 07:34:06;;;;;;;12.50;10.98;;;;;;;14.73;100.00;100674.44;4995161;28;20410;-80
2021/09/15 07:36:36;;;;;;;17.33;12.15;;;;;;;14.92;100.00;100675.47;4981379;28;20045;-83
2021/09/15 07:39:03;;;;;;;14.65;11.75;;;;;;;15.00;100.00;100669.00;4994816;28;20041;-81
2021/09/15 07:41:30;;;;;;;15.73;10.55;;;;;;;15.02;100.00;100673.31;5013204;28;20041;-81
2021/09/15 07:43:57;;;;;;;13.20;11.85;;;;;;;15.16;100.00;100662.16;4987453;28;20041;-82
2021/09/15 07:46:25;;;;;;;14.18;11.43;;;;;;;15.31;100.00;100671.31;4981114;28;20044;-82
2021/09/15 07:48:54;;;;;;;16.77;10.65;;;;;;;15.40;100.00;100665.63;4980641;28;20042;-80
2021/09/15 07:51:21;;;;;;;11.15;9.48;;;;;;;15.37;100.00;100666.59;4969940;28;20038;-83
2021/09/15 07:53:48;;;;;;;10.55;9.35;;;;;;;15.32;100.00;100655.28;5011737;28;20045;-82
2021/09/15 07:56:17;;;;;;;12.00;10.77;;;;;;;15.52;100.00;100659.78;4998432;28;20037;-81
2021/09/15 07:58:43;;;;;;;13.05;10.32;;;;;;;15.62;100.00;100663.84;4994797;28;20098;-81
2021/09/15 08:01:10;;;;;;;13.60;10.60;;;;;;;15.69;100.00;100660.00;4993564;28;20129;-81
2021/09/15 08:03:37;;;;;;;11.02;9.45;;;;;;;15.83;100.00;100661.22;4982823;28;20049;-84
2021/09/15 08:06:07;;;;;;;11.50;9.48;;;;;;;15.77;100.00;100654.34;5014140;28;20625;-81
2021/09/15 08:08:34;;;;;;;12.70;10.05;;;;;;;15.99;100.00;100657.84;4996838;28;20048;-81
2021/09/15 08:11:01;;;;;;;12.10;9.50;;;;;;;16.05;100.00;100662.03;5009176;28;20045;-83
2021/09/15 08:13:28;;;;;;;11.77;9.88;;;;;;;16.33;100.00;100656.38;4979091;28;20041;-85
2021/09/15 08:15:55;;;;;;;14.45;9.80;;;;;;;16.53;99.84;100655.47;4989694;28;20387;-81
2021/09/15 08:18:21;;;;;;;10.07;9.07;;;;;;;16.68;99.85;100657.47;4985355;28;20068;-84
2021/09/15 08:21:00;;;;;;;15.02;9.68;;;;;;;16.95;95.41;100657.16;5007124;28;20033;-83
2021/09/15 08:23:28;;;;;;;90.63;19.10;;;;;;;17.27;94.00;100658.28;4983588;28;20587;-85
2021/09/15 08:25:56;;;;;;;11.20;8.85;;;;;;;17.47;89.53;100654.66;4974770;28;20051;-82
2021/09/15 08:28:24;;;;;;;11.70;8.90;;;;;;;17.69;87.79;100656.19;4985078;28;20227;-84
2021/09/15 08:30:51;;;;;;;11.50;8.98;;;;;;;17.78;88.36;100646.88;5027772;28;20037;-83
2021/09/15 08:33:18;;;;;;;9.15;8.18;;;;;;;17.91;85.80;100649.81;4980578;28;20053;-85
2021/09/15 08:35:45;;;;;;;10.48;8.30;;;;;;;18.17;83.80;100648.47;4975612;28;20659;-80
2021/09/15 08:38:12;;;;;;;13.05;8.65;;;;;;;18.20;84.28;100643.81;5009177;28;20127;-81
2021/09/15 08:40:40;;;;;;;8.30;7.45;;;;;;;18.16;83.58;100642.25;5014009;28;20076;-81
2021/09/15 08:43:07;;;;;;;11.45;9.23;;;;;;;18.41;82.22;100639.13;4978609;28;20045;-80
2021/09/15 08:45:34;;;;;;;10.52;8.60;;;;;;;18.46;78.84;100637.06;4978019;28;20049;-81
2021/09/15 08:48:02;;;;;;;18.05;9.27;;;;;;;18.36;82.48;100638.53;4981688;28;20532;-80
2021/09/15 08:50:29;;;;;;;18.65;9.23;;;;;;;18.68;82.62;100631.47;5013143;28;20037;-79
2021/09/15 08:52:56;;;;;;;10.30;8.27;;;;;;;18.77;81.33;100632.78;5006147;28;20122;-80
2021/09/15 08:55:23;;;;;;;9.88;8.27;;;;;;;18.96;81.46;100636.16;4976947;28;20056;-79
2021/09/15 08:57:50;;;;;;;9.02;7.85;;;;;;;18.98;80.75;100636.06;5002729;28;20049;-79
2021/09/15 09:00:17;;;;;;;9.45;7.82;;;;;;;19.09;80.38;100631.88;5000500;28;20038;-79
2021/09/15 09:02:46;;;;;;;10.98;8.25;;;;;;;19.25;79.37;100636.34;4976465;28;20095;-80
2021/09/15 09:05:13;;;;;;;11.48;8.30;;;;;;;19.51;78.25;100634.88;4990571;28;20097;-79
2021/09/15 09:07:40;;;;;;;9.68;7.78;;;;;;;19.58;79.33;100631.75;5005329;28;20095;-79
2021/09/15 09:10:09;;;;;;;8.95;7.68;;;;;;;19.70;74.67;100629.31;5003878;28;20107;-80
2021/09/15 09:12:37;;;;;;;10.98;7.72;;;;;;;20.20;71.95;100619.09;4985650;28;20045;-79
2021/09/15 09:15:22;;;;;;;8.05;7.25;;;;;;;20.57;75.89;100624.91;5002357;28;20066;-80
2021/09/15 09:17:50;;;;;;;9.40;8.27;;;;;;;20.82;68.95;100621.53;5009848;28;20103;-80
2021/09/15 09:20:18;;;;;;;9.02;7.47;;;;;;;21.07;69.18;100623.50;4988060;28;20041;-79
2021/09/15 09:23:13;;;;;;;9.32;7.60;;;;;;;21.10;68.65;100615.25;4992902;28;20465;-79
2021/09/15 09:25:43;;;;;;;9.13;7.75;;;;;;;21.31;66.57;100613.88;4997336;28;20041;-79
2021/09/15 09:28:27;;;;;;;7.35;6.65;;;;;;;21.39;69.42;100612.53;5010324;28;20042;-81
2021/09/15 09:30:59;;;;;;;8.73;7.30;;;;;;;21.72;70.35;100604.03;4998444;28;20042;-82
2021/09/15 09:33:27;;;;;;;9.18;7.30;;;;;;;21.90;63.50;100602.78;5010722;28;20053;-82
2021/09/15 09:35:59;;;;;;;9.57;7.25;;;;;;;22.00;62.68;100595.78;4982237;28;20057;-83
2021/09/15 09:38:31;;;;;;;7.35;6.65;;;;;;;22.07;63.76;100590.84;5010092;28;20578;-80
2021/09/15 09:41:00;;;;;;;9.50;6.97;;;;;;;22.05;67.21;100593.66;4975209;28;20038;-81
2021/09/15 09:43:28;;;;;;;8.07;7.00;;;;;;;22.01;65.53;100596.66;5022875;28;20045;-80
2021/09/15 09:45:55;;;;;;;7.57;6.78;;;;;;;21.97;65.93;100585.25;5010332;28;20045;-82
2021/09/15 09:48:42;;;;;;;9.15;7.20;;;;;;;22.00;67.45;100582.34;4999909;28;20052;-81
2021/09/15 09:51:31;;;;;;;8.15;7.03;;;;;;;21.89;65.58;100587.59;4996600;28;20044;-80
2021/09/15 09:54:15;;;;;;;8.00;6.60;;;;;;;21.75;67.52;100593.91;4995626;28;20049;-83
2021/09/15 09:56:43;;;;;;;7.82;7.07;;;;;;;21.76;66.95;100581.31;5030125;28;20049;-80
2021/09/15 09:59:11;;;;;;;8.98;7.72;;;;;;;21.59;67.61;100574.41;4999334;28;20095;-81
2021/09/15 10:01:40;;;;;;;8.25;7.35;;;;;;;21.80;67.60;100569.41;4974006;28;20077;-83
2021/09/15 10:04:07;;;;;;;8.02;7.22;;;;;;;21.42;68.08;100572.84;4972495;28;20049;-81
2021/09/15 10:06:35;;;;;;;8.73;7.18;;;;;;;21.60;69.77;100579.66;5016823;28;20045;-81
2021/09/15 10:09:03;;;;;;;8.15;7.43;;;;;;;21.99;69.63;100572.53;4992459;28;20111;-83
2021/09/15 10:11:34;;;;;;;9.35;7.13;;;;;;;22.09;65.60;100573.66;5017794;28;20136;-82
2021/09/15 10:14:02;;;;;;;7.78;7.07;;;;;;;22.45;66.25;100566.66;4998266;28;20049;-82
2021/09/15 10:16:29;;;;;;;8.45;7.65;;;;;;;23.02;62.78;100564.28;4982668;28;20033;-80
2021/09/15 10:19:00;;;;;;;11.68;7.50;;;;;;;23.06;61.35;100564.91;5024798;28;20154;-83
2021/09/15 10:21:30;;;;;;;8.10;7.40;;;;;;;23.26;60.40;100556.19;4979651;28;20042;-82
2021/09/15 10:23:57;;;;;;;8.13;7.30;;;;;;;23.29;60.74;100558.69;4993031;28;20037;-85
2021/09/15 10:26:38;;;;;;;8.15;7.35;;;;;;;23.32;61.17;100554.88;4995515;28;20046;-82
2021/09/15 10:29:15;;;;;;;7.88;6.70;;;;;;;23.55;60.89;100555.84;4993136;28;20441;-84
2021/09/15 10:31:51;;;;;;;9.38;7.10;;;;;;;23.55;61.99;100547.75;4976486;28;20045;-82
2021/09/15 10:34:36;;;;;;;9.23;7.70;;;;;;;23.41;62.54;100546.09;4995053;28;20072;-82
2021/09/15 10:37:23;;;;;;;7.80;7.05;;;;;;;23.65;62.35;100542.56;5001564;28;20045;-83
2021/09/15 10:40:03;;;;;;;7.78;6.53;;;;;;;23.72;61.52;100546.50;4989154;28;20503;-83
2021/09/15 10:42:46;;;;;;;7.90;6.90;;;;;;;23.93;61.37;100543.97;4999777;28;20044;-81
2021/09/15 10:45:20;;;;;;;7.15;6.53;;;;;;;24.06;60.92;100540.19;5002943;28;20419;-82
2021/09/15 10:47:47;;;;;;;8.20;7.10;;;;;;;24.36;58.31;100527.97;4997312;28;20064;-82
2021/09/15 10:50:33;;;;;;;7.85;6.93;;;;;;;24.39;61.59;100531.28;5016236;28;20091;-83
2021/09/15 10:53:03;;;;;;;10.48;7.32;;;;;;;24.48;58.25;100531.53;5012596;28;20502;-83
2021/09/15 10:55:41;;;;;;;8.52;6.95;;;;;;;24.21;58.60;100542.63;5018044;28;20041;-82
2021/09/15 10:58:19;;;;;;;9.43;7.18;;;;;;;24.03;60.06;100534.16;4987448;28;20037;-80
2021/09/15 11:00:51;;;;;;;9.18;6.97;;;;;;;23.61;59.27;100530.25;4978028;28;20515;-81
2021/09/15 11:03:22;;;;;;;7.60;6.65;;;;;;;23.71;61.28;100520.47;5015479;28;20046;-78
2021/09/15 11:05:50;;;;;;;9.32;7.57;;;;;;;23.56;60.39;100522.50;5018122;28;20045;-82
2021/09/15 11:08:32;;;;;;;7.50;6.80;;;;;;;23.61;61.59;100522.16;4995760;28;20050;-81
2021/09/15 11:11:06;;;;;;;9.25;7.60;;;;;;;23.40;63.49;100516.56;5034596;28;20041;-82
2021/09/15 11:13:32;;;;;;;8.32;7.25;;;;;;;23.54;61.70;100516.34;4984253;28;20042;-80
2021/09/15 11:16:24;;;;;;;10.05;7.63;;;;;;;23.61;61.36;100508.69;5013712;28;20049;-81
2021/09/15 11:18:59;;;;;;;8.25;7.45;;;;;;;23.53;61.51;100501.16;5007652;28;20045;-81
2021/09/15 11:21:28;;;;;;;9.05;8.15;;;;;;;23.57;62.02;100499.97;4997539;28;20053;-80
2021/09/15 11:24:09;;;;;;;9.20;7.63;;;;;;;23.23;61.55;100497.16;5015043;28;20462;-80
2021/09/15 11:26:50;;;;;;;9.63;7.95;;;;;;;22.77;63.56;100496.97;5018929;28;20644;-80
2021/09/15 11:29:41;;;;;;;9.77;8.10;;;;;;;22.83;64.59;100490.28;4998397;28;20049;-83